SULAYMANIYAH INTERNATIONAL AIRPORT
  • SulyAir
  • SulyAir
1 1
Arrival

ArrivalsMore >>

Departure

DeparturesMore >>

TAF

TAF ORSU 261700Z 2618/2718 35008KT CAVOK
BECMG 2710/2712 26010KT=

METARs

METAR ORSU 262200Z 05008KT CAVOK 24/M09 Q1014=